• Join FlightAware (Why Join?)
  • Login
  • US Flag 
11:45PM EST


 

Airport Tracker/Info


-or-


 

Live Flight TrackerFlight Track Log ✈ RPA3439 ✈ 16-Apr-2014 ✈ KROC - KPHL

Flight Track Log - Related Links

Times and Time Zones

All times are in EDT time to prevent confusion due to time zone crossing. See the RPA3439 flight status page for this flight to view local times or setup timezone preferences in your user account.

Time Position Orientation Groundspeed Altitude Reporting Facility
EDT Latitude Longitude Course Direction KTS MPH feet Rate Location/Type
07:09AM 43.0969 -77.6964 191° South 156 180 1,700  Level Cleveland Center
07:10AM 43.0664 -77.7172 206° Southwest 197 227 2,900 2,312 Climbing Cleveland Center
07:11AM 42.9967 -77.7244 184° South 243 280 5,900 2,813 Climbing Cleveland Center
07:12AM 42.7152 -77.7504 192° South  Level FlightAware Approximate
07:12AM 42.9164 -77.7278 182° South 269 310 8,900  Level Cleveland Center
07:13AM 42.6158 -77.7803 192° South  Level FlightAware Approximate
07:13AM 42.8325 -77.7339 183° South 293 337 11,400  Level Cleveland Center
07:14AM 42.5160 -77.8046 191° South  Level FlightAware Approximate
07:14AM 42.7408 -77.7564 190° South 329 379 12,100  Level Cleveland Center
07:15AM 42.4162 -77.8313 191° South  Level FlightAware Approximate
07:15AM 42.6317 -77.7839 191° South 330 380 14,800  Level Cleveland Center
07:16AM 42.5408 -77.8086 191° South 331 381 17,400 2,098 Climbing Cleveland Center
07:17AM 42.4536 -77.8311 191° South 334 384 19,100 1,742 Climbing Cleveland Center
07:18AM 42.3578 -77.8558 191° South 347 399 21,000 1,854 Climbing Cleveland Center
07:19AM 42.2597 -77.8803 190° South 356 410 22,900 976 Climbing Cleveland Center
07:20AM 42.1403 -77.9117 191° South 361 415 23,000 49 Climbing Cleveland Center
07:21AM 42.0414 -77.9378 191° South 364 419 23,000  Level Cleveland Center
07:22AM 41.9419 -77.9633 191° South 364 419 23,000  Level Cleveland Center
07:23AM 41.8339 -77.9897 190° South 364 419 23,000  Level Cleveland Center
07:24AM 41.7378 -78.0142 191° South 356 410 23,000  Level Cleveland Center
07:26AM 41.6428 -78.0375 190° South 353 406 23,000  Level Cleveland Center
07:27AM 41.5475 -78.0611 191° South 351 404 23,000  Level Cleveland Center
07:28AM 41.4517 -78.0856 191° South 350 403 23,000  Level Cleveland Center
07:29AM 41.3558 -78.1086 190° South 350 403 23,000  Level Cleveland Center
07:30AM 41.2608 -78.1325 191° South 349 402 23,000  Level Cleveland Center
07:31AM 41.1606 -78.1178 174° South 369 425 23,000  Level Cleveland Center
07:32AM 41.0408 -78.0558 159° South 381 438 23,000  Level Cleveland Center
07:33AM 40.9419 -78.0053 159° South 381 438 23,000  Level Cleveland Center
07:34AM 40.8611 -77.9094 138° Southeast 394 453 23,000 -585 Level Cleveland Center
07:35AM 40.7847 -77.7942 131° Southeast 413 475 21,800 -1,220 Descending Cleveland Center
07:36AM 40.7114 -77.6808 130° Southeast 409 471 20,500 -1,220 Descending Cleveland Center
07:37AM 40.6383 -77.5700 131° Southeast 406 467 19,300 -1,220 Descending Cleveland Center
07:38AM 40.5656 -77.4631 132° Southeast 396 456 18,000 -629 Descending Cleveland Center
07:39AM 40.5136 -77.3358 118° Southeast 395 455 18,000  Level Cleveland Center
07:40AM 40.4581 -77.1844 116° Southeast 395 455 18,000 -49 Level Cleveland Center
07:41AM 40.4094 -77.0556 116° Southeast 395 455 17,900 -403 Descending Cleveland Center
07:42AM 40.3639 -76.8783 109° East 390 449 17,100 -818 Descending New York Center
07:43AM 40.3311 -76.7447 108° East 395 455 16,100 -1,050 Descending New York Center
07:44AM 40.3017 -76.6253 108° East 395 455 15,000 -1,150 Descending New York Center
07:45AM 40.2669 -76.4861 108° East 381 438 13,800 -1,100 Descending New York Center
07:46AM 40.2356 -76.3586 108° East 370 426 12,800 -900 Descending New York Center
07:47AM 40.2111 -76.2586 108° East 365 420 12,000 -950 Descending New York Center
07:48AM 40.1794 -76.1283 108° East 345 397 10,900 -1,041 Descending New York Center
07:49AM 40.1475 -76.0039 109° East 333 383 9,900 -1,150 Descending New York Center
07:50AM 40.1189 -75.8931 109° East 328 377 8,600 -1,311 Descending New York Center
07:51AM 40.0939 -75.7989 109° East 310 357 7,300 -1,300 Descending New York Center
07:52AM 40.0775 -75.6919 101° East 286 329 6,000 -650 Descending New York Center
07:53AM 40.0731 -75.6019 94° East 271 312 6,000  Level New York Center
07:54AM 40.0686 -75.5042 93° East 257 296 6,000  Level New York Center
07:55AM 40.0653 -75.4278 93° East 232 267 6,000  Level New York Center
07:56AM 40.0606 -75.3353 94° East 232 267 6,000  Level New York Center
07:57AM 40.0556 -75.2511 94° East 232 267 6,000  Level New York Center
07:58AM 40.0503 -75.1667 95° East 232 267 6,000 -279 Level New York Center
07:59AM 40.0167 -75.0833 118° Southeast 241 277 5,400 -878 Descending Philadelphia TRACON
08:00AM 39.9667 -75.0333 143° Southeast 224 258 4,200 -1,350 Descending Philadelphia TRACON
08:01AM 39.9167 -75.0667 207° Southwest 203 234 2,700 -1,217 Descending Philadelphia TRACON
08:02AM 39.9000 -75.1500 255° West 159 183 1,400 -950 Descending Philadelphia TRACON
08:03AM 39.8833 -75.1833 237° Southwest 128 147 800 -750 Descending Philadelphia TRACON
08:05AM 39.8667 -75.2333 247° West  Level FlightAware Approximate
08:12AM 39.8722 -75.2409 247° West  Level Estimated